Time;durP1;ratioP1;P1;durP2;ratioP2;P2;SDS_P1;SDS_P2;PMS_P1;PMS_P2;Temp;Humidity;BMP_temperature;BMP_pressure;BME280_temperature;BME280_humidity;BME280_pressure;Samples;Min_cycle;Max_cycle;Signal;HPM_P1;HPM_P2
2024/03/12 00:00:45;;;;;;;4.50;4.07;;;5.60;99.90;;;;;;493876;241;27873;-73
2024/03/12 00:02:47;;;;;;;4.95;4.25;;;5.50;99.90;;;;;;493972;241;27467;-72
2024/03/12 00:04:48;;;;;;;6.60;4.70;;;5.50;99.90;;;;;;493945;237;28068;-71
2024/03/12 00:06:49;;;;;;;7.03;4.45;;;5.40;99.90;;;;;;493914;241;27931;-74
2024/03/12 00:08:50;;;;;;;5.93;4.78;;;5.40;99.90;;;;;;493928;241;27589;-71
2024/03/12 00:10:53;;;;;;;5.93;4.35;;;5.40;99.90;;;;;;493996;241;27524;-72
2024/03/12 00:12:53;;;;;;;7.25;5.10;;;5.30;99.90;;;;;;493856;241;27463;-71
2024/03/12 00:14:55;;;;;;;8.43;5.10;;;5.40;99.90;;;;;;493942;241;27522;-71
2024/03/12 00:16:56;;;;;;;5.18;4.35;;;5.40;99.90;;;;;;493971;241;27461;-70
2024/03/12 00:18:57;;;;;;;8.55;5.18;;;5.30;99.90;;;;;;493902;241;27993;-71
2024/03/12 00:20:58;;;;;;;6.72;5.28;;;5.40;99.90;;;;;;493965;241;28064;-74
2024/03/12 00:22:59;;;;;;;6.80;4.90;;;5.50;99.90;;;;;;493956;241;27600;-71
2024/03/12 00:25:00;;;;;;;6.12;5.20;;;5.50;99.90;;;;;;493895;241;27617;-71
2024/03/12 00:27:02;;;;;;;10.07;5.72;;;5.60;99.90;;;;;;493963;241;27951;-72
2024/03/12 00:29:04;;;;;;;7.37;5.10;;;5.60;99.90;;;;;;493944;237;27477;-72
2024/03/12 00:31:05;;;;;;;6.20;5.55;;;5.70;99.90;;;;;;493863;241;27499;-72
2024/03/12 00:33:05;;;;;;;7.20;5.62;;;5.80;99.90;;;;;;493976;241;27888;-71
2024/03/12 00:35:07;;;;;;;6.55;5.35;;;5.90;99.90;;;;;;493995;241;27493;-71
2024/03/12 00:37:09;;;;;;;6.20;5.30;;;6.00;99.90;;;;;;493984;241;27501;-72
2024/03/12 00:39:10;;;;;;;6.55;5.20;;;6.00;99.90;;;;;;493831;241;27529;-72
2024/03/12 00:41:10;;;;;;;7.80;5.15;;;6.10;99.90;;;;;;493952;241;27596;-72
2024/03/12 00:43:12;;;;;;;6.37;5.57;;;6.10;99.90;;;;;;493996;241;27502;-73
2024/03/12 00:45:13;;;;;;;6.40;5.40;;;6.10;99.90;;;;;;494027;241;28802;-72
2024/03/12 00:47:14;;;;;;;6.05;5.43;;;6.20;99.90;;;;;;493996;241;28022;-74
2024/03/12 00:49:15;;;;;;;6.43;5.40;;;6.20;99.90;;;;;;493967;241;27482;-71
2024/03/12 00:51:18;;;;;;;6.37;5.20;;;6.30;99.90;;;;;;493936;241;27551;-71
2024/03/12 00:53:18;;;;;;;6.65;5.97;;;6.30;99.90;;;;;;493860;241;27564;-73
2024/03/12 00:55:20;;;;;;;6.45;5.12;;;6.40;99.90;;;;;;494004;241;27557;-72
2024/03/12 00:57:22;;;;;;;8.70;5.67;;;6.40;99.90;;;;;;493953;241;27588;-73
2024/03/12 00:59:22;;;;;;;10.37;6.40;;;6.40;99.90;;;;;;493824;241;28818;-74
2024/03/12 01:01:24;;;;;;;10.07;5.85;;;6.30;99.90;;;;;;494012;237;28516;-71
2024/03/12 01:03:26;;;;;;;9.18;6.78;;;6.30;99.90;;;;;;493976;241;28028;-73
2024/03/12 01:05:26;;;;;;;7.90;5.65;;;6.20;99.90;;;;;;493917;241;27573;-72
2024/03/12 01:07:27;;;;;;;7.57;5.20;;;6.20;99.90;;;;;;493957;241;27638;-71
2024/03/12 01:09:28;;;;;;;6.15;5.22;;;6.20;99.90;;;;;;493873;241;28208;-73
2024/03/12 01:11:29;;;;;;;6.47;5.10;;;6.20;99.90;;;;;;493972;237;27479;-74
2024/03/12 01:13:31;;;;;;;7.47;5.40;;;6.20;99.90;;;;;;493952;241;28432;-74
2024/03/12 01:15:32;;;;;;;7.77;5.30;;;6.20;99.90;;;;;;493921;241;28608;-73
2024/03/12 01:17:33;;;;;;;8.13;5.65;;;6.20;99.90;;;;;;493875;241;27974;-75
2024/03/12 01:19:41;;;;;;;7.80;4.83;;;6.30;99.90;;;;;;493950;237;28089;-72
2024/03/12 01:21:36;;;;;;;7.68;5.45;;;6.30;99.90;;;;;;493475;241;28359;-71
2024/03/12 01:23:37;;;;;;;5.17;4.57;;;6.30;99.90;;;;;;493943;241;28022;-73
2024/03/12 01:25:41;;;;;;;10.40;5.13;;;6.40;99.90;;;;;;493949;241;28175;-73
2024/03/12 01:27:41;;;;;;;5.07;4.57;;;6.40;99.90;;;;;;493694;241;27930;-73
2024/03/12 01:29:41;;;;;;;5.80;4.50;;;6.40;99.90;;;;;;493839;241;27509;-74
2024/03/12 01:31:44;;;;;;;9.18;4.85;;;6.40;99.90;;;;;;493967;241;28810;-71
2024/03/12 01:33:43;;;;;;;8.13;4.23;;;6.40;99.90;;;;;;493815;241;27524;-72
2024/03/12 01:35:46;;;;;;;5.50;4.53;;;6.40;99.90;;;;;;493917;241;28802;-71
2024/03/12 01:37:46;;;;;;;7.57;4.68;;;6.40;99.90;;;;;;493830;241;28010;-71
2024/03/12 01:39:52;;;;;;;5.10;4.37;;;6.50;99.90;;;;;;494014;241;28121;-72
2024/03/12 01:41:49;;;;;;;11.27;4.90;;;6.50;99.90;;;;;;493562;241;28361;-73
2024/03/12 01:43:49;;;;;;;9.35;4.85;;;6.50;99.90;;;;;;493919;241;28462;-71
2024/03/12 01:45:52;;;;;;;4.57;4.17;;;6.50;99.90;;;;;;493981;241;27625;-73
2024/03/12 01:47:52;;;;;;;7.00;4.90;;;6.50;99.90;;;;;;493806;237;27999;-72
2024/03/12 01:49:54;;;;;;;5.45;4.30;;;6.50;99.90;;;;;;493767;238;28823;-72
2024/03/12 01:51:54;;;;;;;4.97;4.47;;;6.50;99.90;;;;;;493905;241;27464;-72
2024/03/12 01:53:56;;;;;;;7.43;5.00;;;6.50;99.90;;;;;;493929;241;27521;-71
2024/03/12 01:55:57;;;;;;;5.27;4.60;;;6.50;99.90;;;;;;493982;241;27742;-72
2024/03/12 01:57:58;;;;;;;5.80;4.70;;;6.50;99.90;;;;;;493921;241;28043;-72
2024/03/12 02:00:00;;;;;;;5.50;4.67;;;6.50;99.90;;;;;;493930;241;27657;-74
2024/03/12 02:02:01;;;;;;;7.37;5.53;;;6.50;99.90;;;;;;493918;241;27949;-72
2024/03/12 02:04:02;;;;;;;10.93;5.77;;;6.50;99.90;;;;;;493946;241;28067;-72
2024/03/12 02:06:04;;;;;;;8.20;4.73;;;6.50;99.90;;;;;;493953;241;28092;-72
2024/03/12 02:08:04;;;;;;;7.33;5.73;;;6.50;99.90;;;;;;493836;241;28387;-72
2024/03/12 02:10:06;;;;;;;9.20;5.80;;;6.40;99.90;;;;;;493911;241;28442;-72
2024/03/12 02:12:07;;;;;;;7.70;6.00;;;6.40;99.90;;;;;;493980;241;28744;-73
2024/03/12 02:14:08;;;;;;;9.90;7.45;;;6.40;99.90;;;;;;493950;241;29384;-71
2024/03/12 02:16:10;;;;;;;7.90;6.33;;;6.40;99.90;;;;;;493939;241;27566;-73
2024/03/12 02:18:11;;;;;;;12.13;6.40;;;6.50;99.90;;;;;;493892;241;27951;-71
2024/03/12 02:20:13;;;;;;;7.77;5.93;;;6.50;99.90;;;;;;493937;241;27794;-71
2024/03/12 02:22:13;;;;;;;9.38;6.15;;;6.50;99.90;;;;;;493984;241;28006;-71
2024/03/12 02:24:14;;;;;;;8.48;6.00;;;6.50;99.90;;;;;;493962;241;27546;-72
2024/03/12 02:26:16;;;;;;;6.70;5.77;;;6.60;99.90;;;;;;493968;241;27562;-72
2024/03/12 02:28:17;;;;;;;9.07;6.17;;;6.50;99.90;;;;;;493893;241;28750;-73
2024/03/12 02:30:18;;;;;;;8.50;6.73;;;6.50;99.90;;;;;;493981;241;28493;-72
2024/03/12 02:32:20;;;;;;;7.97;6.63;;;6.50;99.90;;;;;;493985;241;28226;-74
2024/03/12 02:34:21;;;;;;;8.17;6.27;;;6.50;99.90;;;;;;493954;241;27877;-71
2024/03/12 02:36:22;;;;;;;8.73;6.83;;;6.50;99.90;;;;;;493916;241;28895;-72
2024/03/12 02:38:23;;;;;;;9.23;6.90;;;6.50;99.90;;;;;;493943;241;28691;-72
2024/03/12 02:40:25;;;;;;;11.55;8.07;;;6.50;99.90;;;;;;494021;241;27931;-74
2024/03/12 02:42:28;;;;;;;12.73;8.50;;;6.50;99.90;;;;;;493957;241;27542;-72
2024/03/12 02:44:27;;;;;;;10.30;7.80;;;6.50;99.90;;;;;;493793;237;28672;-71
2024/03/12 02:46:28;;;;;;;11.60;8.47;;;6.50;99.90;;;;;;493957;241;27537;-71
2024/03/12 02:48:30;;;;;;;13.00;8.00;;;6.50;99.90;;;;;;493928;241;28244;-72
2024/03/12 02:50:31;;;;;;;10.57;7.73;;;6.50;99.90;;;;;;494005;237;29328;-72
2024/03/12 02:52:32;;;;;;;14.00;9.83;;;6.50;99.90;;;;;;493980;241;28470;-73
2024/03/12 02:54:33;;;;;;;10.00;8.07;;;6.50;99.90;;;;;;493956;237;28460;-71
2024/03/12 02:56:35;;;;;;;13.35;8.48;;;6.50;99.90;;;;;;493955;241;27512;-71
2024/03/12 02:58:36;;;;;;;9.52;8.23;;;6.50;99.90;;;;;;493965;241;27650;-72
2024/03/12 03:00:37;;;;;;;14.33;8.37;;;6.50;99.90;;;;;;493991;241;27565;-71
2024/03/12 03:02:38;;;;;;;12.60;8.57;;;6.50;99.90;;;;;;493942;237;29235;-74
2024/03/12 03:04:40;;;;;;;11.07;7.80;;;6.50;99.90;;;;;;493971;241;28004;-70
2024/03/12 03:06:41;;;;;;;9.60;7.60;;;6.50;99.90;;;;;;493992;241;28102;-71
2024/03/12 03:08:42;;;;;;;12.57;9.17;;;6.50;99.90;;;;;;493922;241;28303;-74
2024/03/12 03:10:44;;;;;;;9.40;7.73;;;6.50;99.90;;;;;;493973;241;27951;-70
2024/03/12 03:12:45;;;;;;;10.33;8.00;;;6.50;99.90;;;;;;493989;237;30239;-71
2024/03/12 03:14:46;;;;;;;9.18;7.70;;;6.50;99.90;;;;;;493976;237;28299;-71
2024/03/12 03:16:48;;;;;;;11.27;8.90;;;6.50;99.90;;;;;;493962;241;28112;-73
2024/03/12 03:18:49;;;;;;;10.23;8.25;;;6.60;99.90;;;;;;493895;241;27631;-74
2024/03/12 03:20:50;;;;;;;14.23;9.27;;;6.60;99.90;;;;;;493967;241;27529;-73
2024/03/12 03:22:51;;;;;;;10.10;8.25;;;6.60;99.90;;;;;;494020;241;27983;-73
2024/03/12 03:24:52;;;;;;;14.37;8.77;;;6.60;99.90;;;;;;493975;241;27608;-73
2024/03/12 03:26:54;;;;;;;13.40;9.17;;;6.60;99.90;;;;;;493971;241;28342;-73
2024/03/12 03:28:55;;;;;;;11.60;8.90;;;6.60;99.90;;;;;;493909;241;27962;-74
2024/03/12 03:30:59;;;;;;;12.53;10.17;;;6.60;99.90;;;;;;493979;241;28310;-72
2024/03/12 03:32:58;;;;;;;16.33;9.13;;;6.60;99.90;;;;;;493753;241;29089;-71
2024/03/12 03:34:59;;;;;;;9.60;7.70;;;6.60;99.90;;;;;;493954;241;27540;-71
2024/03/12 03:37:00;;;;;;;11.48;8.27;;;6.60;99.90;;;;;;493933;241;28238;-73
2024/03/12 03:39:01;;;;;;;11.55;8.45;;;6.60;99.90;;;;;;493935;237;27509;-73
2024/03/12 03:41:02;;;;;;;10.20;7.87;;;6.60;99.90;;;;;;494009;241;27555;-73
2024/03/12 03:43:04;;;;;;;13.90;9.80;;;6.60;99.90;;;;;;493998;241;27814;-73
2024/03/12 03:45:05;;;;;;;13.50;9.20;;;6.60;99.90;;;;;;493847;241;27955;-73
2024/03/12 03:47:06;;;;;;;13.63;9.90;;;6.60;99.90;;;;;;493915;241;29167;-72
2024/03/12 03:49:07;;;;;;;12.10;9.37;;;6.60;99.90;;;;;;493985;241;28325;-71
2024/03/12 03:51:10;;;;;;;11.57;8.93;;;6.60;99.90;;;;;;494012;241;28200;-72
2024/03/12 03:53:10;;;;;;;13.27;9.83;;;6.60;99.90;;;;;;493953;241;27923;-73
2024/03/12 03:55:11;;;;;;;16.23;10.00;;;6.60;99.90;;;;;;493974;241;28201;-73
2024/03/12 03:57:13;;;;;;;15.07;9.67;;;6.60;99.90;;;;;;493967;241;27834;-71
2024/03/12 03:59:16;;;;;;;11.07;8.98;;;6.60;99.90;;;;;;493891;241;28014;-72
2024/03/12 04:01:15;;;;;;;12.90;9.30;;;6.60;99.90;;;;;;493802;241;27508;-71
2024/03/12 04:03:16;;;;;;;13.43;9.13;;;6.60;99.90;;;;;;493983;237;27941;-72
2024/03/12 04:05:18;;;;;;;13.17;9.80;;;6.60;99.90;;;;;;493966;241;27980;-72
2024/03/12 04:07:19;;;;;;;11.93;8.57;;;6.60;99.90;;;;;;493838;241;28441;-73
2024/03/12 04:09:20;;;;;;;13.00;8.45;;;6.60;99.90;;;;;;493940;241;27961;-72
2024/03/12 04:11:21;;;;;;;11.30;8.35;;;6.70;99.90;;;;;;493978;241;27597;-72
2024/03/12 04:13:22;;;;;;;12.32;7.25;;;6.60;99.90;;;;;;493951;241;27467;-74
2024/03/12 04:15:28;;;;;;;10.93;8.13;;;6.60;99.90;;;;;;493983;241;27473;-72
2024/03/12 04:17:25;;;;;;;12.07;8.33;;;6.60;99.90;;;;;;493584;241;27988;-73
2024/03/12 04:19:31;;;;;;;13.87;10.47;;;6.60;99.90;;;;;;493899;237;29358;-72
2024/03/12 04:21:27;;;;;;;9.87;8.10;;;6.60;99.90;;;;;;493521;241;28841;-72
2024/03/12 04:23:29;;;;;;;12.03;8.80;;;6.60;99.90;;;;;;493938;241;29833;-71
2024/03/12 04:25:30;;;;;;;12.20;9.33;;;6.70;99.90;;;;;;493842;241;29301;-71
2024/03/12 04:27:31;;;;;;;11.90;8.60;;;6.60;99.90;;;;;;493962;241;28543;-72
2024/03/12 04:29:32;;;;;;;13.87;9.37;;;6.70;99.90;;;;;;493917;237;28052;-72
2024/03/12 04:31:34;;;;;;;13.13;10.20;;;6.70;99.90;;;;;;493874;241;28164;-73
2024/03/12 04:33:36;;;;;;;13.02;10.15;;;6.60;99.90;;;;;;493987;241;28221;-74
2024/03/12 04:35:36;;;;;;;13.30;9.75;;;6.70;99.90;;;;;;493970;237;27479;-71
2024/03/12 04:37:38;;;;;;;14.63;10.13;;;6.70;99.90;;;;;;493916;241;28061;-74
2024/03/12 04:39:39;;;;;;;14.93;10.37;;;6.60;99.90;;;;;;493925;241;28522;-72
2024/03/12 04:41:42;;;;;;;14.20;10.40;;;6.60;99.90;;;;;;493942;241;28615;-74
2024/03/12 04:43:41;;;;;;;14.00;10.50;;;6.70;99.90;;;;;;493868;237;27792;-74
2024/03/12 04:45:43;;;;;;;15.90;11.20;;;6.60;99.90;;;;;;493956;241;27486;-71
2024/03/12 04:47:44;;;;;;;12.87;9.10;;;6.60;99.90;;;;;;493873;241;28013;-74
2024/03/12 04:49:45;;;;;;;10.20;7.93;;;6.60;99.90;;;;;;493962;241;27628;-74
2024/03/12 04:51:46;;;;;;;13.77;10.20;;;6.70;99.90;;;;;;493996;241;27578;-74
2024/03/12 04:53:48;;;;;;;15.47;9.90;;;6.70;99.90;;;;;;493866;241;28000;-72
2024/03/12 04:55:49;;;;;;;14.53;10.90;;;6.70;99.90;;;;;;493964;241;28505;-72
2024/03/12 04:57:50;;;;;;;12.50;9.97;;;6.60;99.90;;;;;;493873;241;29315;-74
2024/03/12 04:59:51;;;;;;;16.83;11.43;;;6.70;99.90;;;;;;493982;241;27892;-72
2024/03/12 05:01:53;;;;;;;15.77;10.60;;;6.60;99.90;;;;;;493962;241;28037;-71
2024/03/12 05:03:54;;;;;;;18.20;10.87;;;6.60;99.90;;;;;;493959;241;27872;-72
2024/03/12 05:05:55;;;;;;;15.83;11.03;;;6.60;99.90;;;;;;493895;241;28465;-74
2024/03/12 05:07:57;;;;;;;14.93;10.07;;;6.60;99.90;;;;;;493908;237;28101;-74
2024/03/12 05:09:59;;;;;;;15.17;11.00;;;6.60;99.90;;;;;;494057;241;27762;-72
2024/03/12 05:11:59;;;;;;;21.00;13.80;;;6.60;99.90;;;;;;493870;241;27950;-71
2024/03/12 05:14:00;;;;;;;17.43;11.90;;;6.60;99.90;;;;;;493932;241;28468;-74
2024/03/12 05:16:01;;;;;;;15.30;10.80;;;6.60;99.90;;;;;;493927;241;28413;-74
2024/03/12 05:18:03;;;;;;;18.60;12.10;;;6.60;99.90;;;;;;493907;237;28058;-74
2024/03/12 05:20:12;;;;;;;15.30;10.40;;;6.60;99.90;;;;;;493933;241;28774;-77
2024/03/12 05:22:08;;;;;;;18.30;11.25;;;6.60;99.90;;;;;;493470;241;28102;-72
2024/03/12 05:24:09;;;;;;;15.00;10.33;;;6.60;99.90;;;;;;493894;241;27470;-71
2024/03/12 05:26:11;;;;;;;18.33;11.70;;;6.70;99.90;;;;;;493867;241;28442;-72
2024/03/12 05:28:12;;;;;;;16.37;11.23;;;6.70;99.90;;;;;;493894;241;29194;-72
2024/03/12 05:30:16;;;;;;;18.70;12.60;;;6.60;99.90;;;;;;493960;241;27956;-71
2024/03/12 05:32:21;;;;;;;15.83;10.07;;;6.60;99.90;;;;;;493970;241;27808;-72
2024/03/12 05:34:29;;;;;;;18.10;12.53;;;6.70;99.90;;;;;;493870;241;28200;-72
2024/03/12 05:36:24;;;;;;;20.13;11.97;;;6.60;99.90;;;;;;493299;241;28172;-72
2024/03/12 05:38:33;;;;;;;17.17;11.07;;;6.70;99.90;;;;;;493696;241;27817;-72
2024/03/12 05:40:46;;;;;;;20.95;14.15;;;6.60;99.90;;;;;;493906;241;28127;-72
2024/03/12 05:49:34;;;;;;;19.95;11.68;;;6.60;99.90;;;;;;493945;241;27490;-72
2024/03/12 05:51:37;;;;;;;20.83;12.43;;;6.60;99.90;;;;;;494004;241;27453;-72
2024/03/12 05:53:41;;;;;;;23.77;12.57;;;6.60;99.90;;;;;;493794;241;27987;-72
2024/03/12 05:55:40;;;;;;;22.90;13.60;;;6.60;99.90;;;;;;493596;241;28388;-74
2024/03/12 05:57:39;;;;;;;21.60;12.90;;;6.60;99.90;;;;;;493715;241;28367;-74
2024/03/12 05:59:41;;;;;;;24.83;13.47;;;6.60;99.90;;;;;;493969;237;27944;-71
2024/03/12 06:01:41;;;;;;;18.43;11.60;;;6.60;99.90;;;;;;493891;237;27990;-71
2024/03/12 06:03:43;;;;;;;23.53;14.17;;;6.60;99.90;;;;;;493921;241;28930;-72
2024/03/12 06:05:44;;;;;;;19.67;12.07;;;6.60;99.90;;;;;;493910;237;28292;-73
2024/03/12 06:07:45;;;;;;;23.60;14.27;;;6.60;99.90;;;;;;493902;241;28543;-73
2024/03/12 06:09:46;;;;;;;19.10;12.20;;;6.60;99.90;;;;;;493899;241;28015;-74
2024/03/12 06:11:48;;;;;;;23.33;13.07;;;6.60;99.90;;;;;;493954;241;27814;-73
2024/03/12 06:13:49;;;;;;;21.60;12.33;;;6.70;99.90;;;;;;493895;241;28452;-74
2024/03/12 06:15:50;;;;;;;17.53;11.10;;;6.70;99.90;;;;;;493932;241;29185;-73
2024/03/12 06:17:52;;;;;;;26.30;15.40;;;6.70;99.90;;;;;;493899;241;28950;-73
2024/03/12 06:19:53;;;;;;;24.63;14.80;;;6.70;99.90;;;;;;493973;241;27886;-75
2024/03/12 06:21:54;;;;;;;22.87;13.60;;;6.60;99.90;;;;;;493938;241;27538;-72
2024/03/12 06:23:55;;;;;;;24.73;14.60;;;6.60;99.90;;;;;;493895;237;28966;-72
2024/03/12 06:25:56;;;;;;;24.87;15.03;;;6.70;99.90;;;;;;493980;237;28014;-74
2024/03/12 06:28:05;;;;;;;26.20;13.20;;;6.70;99.90;;;;;;493908;241;28528;-72
2024/03/12 06:29:59;;;;;;;27.57;16.70;;;6.60;99.90;;;;;;493342;241;28460;-72
2024/03/12 06:32:00;;;;;;;28.27;17.40;;;6.70;99.90;;;;;;493919;241;28388;-72
2024/03/12 06:34:01;;;;;;;22.90;14.67;;;6.70;99.90;;;;;;493956;241;28206;-72
2024/03/12 06:36:03;;;;;;;23.23;14.17;;;6.70;99.90;;;;;;493974;241;27608;-73
2024/03/12 06:38:05;;;;;;;22.57;14.30;;;6.70;99.90;;;;;;493895;241;27720;-72
2024/03/12 06:40:05;;;;;;;23.70;14.18;;;6.70;99.90;;;;;;493841;241;28863;-74
2024/03/12 06:42:12;;;;;;;26.40;16.80;;;6.70;99.90;;;;;;493919;241;27475;-71
2024/03/12 06:44:11;;;;;;;21.17;13.40;;;6.80;99.90;;;;;;493516;241;28371;-71
2024/03/12 06:46:09;;;;;;;27.63;13.93;;;6.80;99.90;;;;;;493652;241;28358;-74
2024/03/12 06:48:10;;;;;;;29.97;16.67;;;6.80;99.90;;;;;;493875;241;28500;-74
2024/03/12 06:50:12;;;;;;;24.30;14.43;;;6.90;99.90;;;;;;493922;237;27873;-71
2024/03/12 06:52:13;;;;;;;26.00;14.53;;;6.90;99.90;;;;;;493970;241;28142;-73
2024/03/12 06:54:14;;;;;;;33.13;17.00;;;6.90;99.90;;;;;;493871;241;27964;-71
2024/03/12 06:56:17;;;;;;;25.90;16.00;;;6.90;99.90;;;;;;493913;241;28032;-73
2024/03/12 06:58:18;;;;;;;24.80;15.43;;;6.90;99.90;;;;;;493773;237;27950;-73
2024/03/12 07:00:36;;;;;;;22.30;15.20;;;6.90;99.90;;;;;;493841;241;28034;-71
2024/03/12 07:02:38;;;;;;;27.63;14.97;;;6.90;99.90;;;;;;493207;241;28132;-71
2024/03/12 07:04:35;;;;;;;30.87;18.53;;;6.90;99.90;;;;;;493138;241;28036;-72
2024/03/12 07:06:37;;;;;;;24.33;15.43;;;6.90;99.90;;;;;;493971;241;27940;-72
2024/03/12 07:08:39;;;;;;;32.20;19.03;;;6.90;99.90;;;;;;493876;241;28089;-72
2024/03/12 07:10:40;;;;;;;26.37;16.10;;;6.90;99.90;;;;;;493902;241;27891;-72
2024/03/12 07:12:42;;;;;;;28.93;17.23;;;6.90;99.90;;;;;;493907;241;28586;-72
2024/03/12 07:14:54;;;;;;;26.37;16.10;;;6.90;99.90;;;;;;493804;237;28368;-73
2024/03/12 07:16:45;;;;;;;32.73;19.00;;;6.90;99.90;;;;;;493147;241;27770;-74
2024/03/12 07:18:46;;;;;;;33.57;20.13;;;6.90;99.90;;;;;;493918;241;27960;-74
2024/03/12 07:20:52;;;;;;;35.37;21.93;;;6.90;99.90;;;;;;493970;237;27814;-73
2024/03/12 07:22:49;;;;;;;27.53;18.33;;;6.90;99.90;;;;;;493635;241;27705;-71
2024/03/12 07:24:50;;;;;;;28.20;17.00;;;6.90;99.90;;;;;;493967;241;28487;-71
2024/03/12 07:26:51;;;;;;;27.73;16.67;;;6.90;99.90;;;;;;493983;241;28971;-74
2024/03/12 07:28:53;;;;;;;29.53;18.63;;;6.90;99.90;;;;;;493898;241;28291;-72
2024/03/12 07:30:54;;;;;;;29.87;19.03;;;6.90;99.90;;;;;;493964;241;27887;-72
2024/03/12 07:32:55;;;;;;;29.63;18.93;;;6.90;99.90;;;;;;493973;241;28009;-72
2024/03/12 07:34:56;;;;;;;30.33;17.33;;;7.00;99.90;;;;;;493999;241;28021;-72
2024/03/12 07:36:58;;;;;;;31.13;19.03;;;7.00;99.90;;;;;;493982;241;27994;-73
2024/03/12 07:38:59;;;;;;;29.57;19.23;;;7.00;99.90;;;;;;493921;241;27962;-72
2024/03/12 07:41:00;;;;;;;29.90;18.77;;;7.00;99.90;;;;;;493979;241;27742;-72
2024/03/12 07:43:04;;;;;;;25.40;16.40;;;7.00;99.90;;;;;;494031;241;28348;-73
2024/03/12 07:45:04;;;;;;;30.43;18.50;;;7.00;99.90;;;;;;493833;241;28626;-71
2024/03/12 07:47:04;;;;;;;32.13;19.70;;;7.00;99.90;;;;;;493881;241;28364;-71
2024/03/12 07:49:08;;;;;;;28.23;17.40;;;7.00;99.90;;;;;;493872;241;28122;-72
2024/03/12 07:51:09;;;;;;;30.20;18.20;;;7.00;99.90;;;;;;493804;241;27954;-72
2024/03/12 07:53:10;;;;;;;26.67;16.17;;;7.10;99.90;;;;;;493853;241;28059;-72
2024/03/12 07:55:10;;;;;;;26.63;17.50;;;7.10;99.90;;;;;;493817;241;27871;-72
2024/03/12 07:57:11;;;;;;;28.37;18.40;;;7.20;99.90;;;;;;493960;241;27976;-74
2024/03/12 07:59:12;;;;;;;28.33;16.40;;;7.10;99.90;;;;;;493940;241;28313;-74
2024/03/12 08:01:14;;;;;;;27.40;17.33;;;7.20;99.90;;;;;;494015;241;28472;-74
2024/03/12 08:03:14;;;;;;;30.30;18.17;;;7.20;99.90;;;;;;493906;241;28412;-74
2024/03/12 08:05:15;;;;;;;27.60;17.63;;;7.30;99.90;;;;;;493935;241;29026;-73
2024/03/12 08:07:19;;;;;;;32.53;18.83;;;7.30;99.90;;;;;;493941;241;28053;-73
2024/03/12 08:09:23;;;;;;;29.00;18.53;;;7.40;99.90;;;;;;493803;241;28098;-74
2024/03/12 08:11:23;;;;;;;29.33;17.67;;;7.50;99.90;;;;;;493971;241;28525;-71
2024/03/12 08:13:25;;;;;;;27.20;17.40;;;7.50;99.90;;;;;;493962;241;28341;-73
2024/03/12 08:15:27;;;;;;;26.63;17.60;;;7.50;99.90;;;;;;493945;241;28052;-73
2024/03/12 08:17:28;;;;;;;28.13;18.30;;;7.50;99.90;;;;;;493785;241;27925;-73
2024/03/12 08:19:28;;;;;;;29.43;18.30;;;7.50;99.90;;;;;;493862;241;27779;-75
2024/03/12 08:21:29;;;;;;;30.33;18.60;;;7.50;99.90;;;;;;493971;241;28044;-73
2024/03/12 08:23:31;;;;;;;28.90;19.03;;;7.50;99.90;;;;;;493923;241;27763;-73
2024/03/12 08:25:32;;;;;;;37.10;21.87;;;7.40;99.90;;;;;;493901;241;27644;-73
2024/03/12 08:27:33;;;;;;;31.00;19.87;;;7.40;99.90;;;;;;493801;241;28012;-73
2024/03/12 08:29:34;;;;;;;33.27;19.87;;;7.40;99.90;;;;;;493957;241;28499;-74
2024/03/12 08:31:38;;;;;;;30.73;18.90;;;7.30;99.90;;;;;;493948;241;27925;-73
2024/03/12 08:33:37;;;;;;;29.90;18.20;;;7.40;99.90;;;;;;493771;241;27871;-74
2024/03/12 08:35:38;;;;;;;34.00;20.40;;;7.40;99.90;;;;;;493970;241;27738;-73
2024/03/12 08:37:39;;;;;;;39.23;22.30;;;7.40;99.90;;;;;;493955;241;28125;-73
2024/03/12 08:39:41;;;;;;;36.07;21.67;;;7.40;99.90;;;;;;493944;241;27994;-73
2024/03/12 08:41:42;;;;;;;31.93;18.73;;;7.30;99.90;;;;;;493939;241;27883;-73
2024/03/12 08:43:43;;;;;;;33.20;20.13;;;7.30;99.90;;;;;;493918;237;28030;-73
2024/03/12 08:45:44;;;;;;;34.50;20.67;;;7.40;99.90;;;;;;494004;241;27911;-74
2024/03/12 08:47:47;;;;;;;34.70;20.50;;;7.40;99.90;;;;;;493926;241;27833;-73
2024/03/12 08:49:47;;;;;;;33.60;21.40;;;7.40;99.90;;;;;;493904;241;27909;-74
2024/03/12 08:51:49;;;;;;;33.10;20.97;;;7.50;99.90;;;;;;493927;241;27992;-73
2024/03/12 08:53:49;;;;;;;32.00;19.43;;;7.60;99.90;;;;;;493893;237;27977;-73
2024/03/12 08:55:51;;;;;;;30.50;19.53;;;7.70;99.90;;;;;;493957;241;28459;-74
2024/03/12 08:57:52;;;;;;;34.10;21.30;;;7.70;99.90;;;;;;493878;241;28345;-73
2024/03/12 08:59:53;;;;;;;35.63;21.70;;;7.80;99.90;;;;;;493919;241;28069;-74
2024/03/12 09:01:57;;;;;;;29.87;19.00;;;7.90;99.90;;;;;;493959;241;27982;-73
2024/03/12 09:03:57;;;;;;;29.97;19.40;;;8.00;99.90;;;;;;493769;241;27873;-73
2024/03/12 09:05:59;;;;;;;32.20;20.10;;;8.10;99.90;;;;;;493896;241;28132;-74
2024/03/12 09:07:58;;;;;;;31.83;21.50;;;8.10;99.90;;;;;;493751;241;27916;-73
2024/03/12 09:10:00;;;;;;;33.67;21.83;;;8.20;99.90;;;;;;493889;241;27971;-73
2024/03/12 09:12:02;;;;;;;34.87;21.70;;;8.20;99.90;;;;;;493990;241;27903;-74
2024/03/12 09:14:02;;;;;;;37.73;22.37;;;8.10;99.90;;;;;;493877;237;28470;-72
2024/03/12 09:16:03;;;;;;;32.80;20.77;;;8.00;99.90;;;;;;493950;241;28572;-73
2024/03/12 09:18:07;;;;;;;30.33;18.43;;;8.00;99.90;;;;;;493891;241;27949;-73
2024/03/12 09:20:12;;;;;;;35.87;21.30;;;8.10;99.90;;;;;;493996;241;27839;-73
2024/03/12 09:22:10;;;;;;;32.77;20.93;;;8.10;99.90;;;;;;493693;241;28018;-74
2024/03/12 09:24:11;;;;;;;31.40;19.57;;;8.00;99.90;;;;;;493952;241;27985;-74
2024/03/12 09:26:13;;;;;;;33.40;19.90;;;7.90;99.90;;;;;;493933;241;27889;-73
2024/03/12 09:28:16;;;;;;;30.50;20.90;;;7.80;99.90;;;;;;493869;241;27982;-73
2024/03/12 09:30:16;;;;;;;38.97;22.63;;;7.90;99.90;;;;;;493784;241;27975;-73
2024/03/12 09:32:17;;;;;;;41.20;22.90;;;7.70;99.90;;;;;;493875;241;28414;-73
2024/03/12 09:34:17;;;;;;;38.97;21.90;;;7.60;99.90;;;;;;493921;241;28476;-73
2024/03/12 09:36:20;;;;;;;28.87;18.37;;;7.60;99.90;;;;;;493919;241;27834;-73
2024/03/12 09:38:20;;;;;;;38.97;25.00;;;7.60;99.90;;;;;;493894;241;27714;-73
2024/03/12 09:40:21;;;;;;;35.13;21.57;;;7.60;99.90;;;;;;493842;241;28115;-74
2024/03/12 09:42:22;;;;;;;33.40;20.70;;;7.70;99.90;;;;;;493945;241;27964;-73
2024/03/12 09:44:25;;;;;;;33.37;19.67;;;7.70;99.90;;;;;;493934;241;27635;-74
2024/03/12 09:46:26;;;;;;;26.73;17.63;;;7.60;99.90;;;;;;493866;241;27938;-75
2024/03/12 09:48:26;;;;;;;30.90;17.67;;;7.60;99.90;;;;;;493913;241;27946;-74
2024/03/12 09:50:29;;;;;;;33.17;18.83;;;7.60;99.90;;;;;;493898;241;28330;-74
2024/03/12 09:52:29;;;;;;;29.63;18.10;;;7.50;99.90;;;;;;493894;241;28485;-74
2024/03/12 09:54:30;;;;;;;34.50;20.50;;;7.50;99.90;;;;;;493858;241;27992;-73
2024/03/12 09:56:33;;;;;;;29.07;19.03;;;7.50;99.90;;;;;;494007;241;27868;-75
2024/03/12 09:58:36;;;;;;;27.00;16.97;;;7.50;99.90;;;;;;493798;241;27742;-73
2024/03/12 10:00:34;;;;;;;27.67;17.57;;;7.60;99.90;;;;;;493662;241;27974;-73
2024/03/12 10:02:35;;;;;;;29.13;18.93;;;7.60;99.90;;;;;;493923;241;28039;-73
2024/03/12 10:04:37;;;;;;;30.93;17.30;;;7.60;99.90;;;;;;493942;241;27849;-73
2024/03/12 10:06:38;;;;;;;29.20;17.40;;;7.60;99.90;;;;;;493916;241;27865;-74
2024/03/12 10:08:39;;;;;;;32.00;18.80;;;7.60;99.90;;;;;;493908;241;28290;-73
2024/03/12 10:10:40;;;;;;;32.13;18.47;;;7.60;99.90;;;;;;493941;241;28350;-74
2024/03/12 10:12:41;;;;;;;31.20;17.60;;;7.50;99.90;;;;;;493946;241;28196;-73
2024/03/12 10:14:43;;;;;;;33.57;20.80;;;7.50;99.90;;;;;;493989;241;27950;-74
2024/03/12 10:16:44;;;;;;;38.50;20.90;;;7.50;99.90;;;;;;493943;241;27891;-73
2024/03/12 10:18:45;;;;;;;33.93;20.30;;;7.50;99.90;;;;;;493889;241;27703;-73
2024/03/12 10:20:46;;;;;;;36.67;22.07;;;7.40;99.90;;;;;;493925;241;28033;-73
2024/03/12 10:22:48;;;;;;;33.03;20.33;;;7.30;99.90;;;;;;493967;241;28309;-74
2024/03/12 10:24:49;;;;;;;32.70;20.47;;;7.30;99.90;;;;;;493968;238;27815;-73
2024/03/12 10:26:50;;;;;;;37.20;20.30;;;7.20;99.90;;;;;;493939;241;28360;-73
2024/03/12 10:28:52;;;;;;;35.93;22.00;;;7.20;99.90;;;;;;493881;241;28489;-74
2024/03/12 10:30:53;;;;;;;37.00;21.00;;;7.10;99.90;;;;;;493976;241;27755;-73
2024/03/12 10:32:54;;;;;;;33.40;20.33;;;7.00;99.90;;;;;;494001;237;27622;-74
2024/03/12 10:34:56;;;;;;;31.00;18.73;;;6.90;99.90;;;;;;493950;241;28018;-73